createdAt,value
2019-04-21T00:01:51.080Z,51.20
2019-04-21T00:04:36.108Z,50.90
2019-04-21T00:07:16.076Z,50.70
2019-04-21T00:09:50.701Z,50.90
2019-04-21T00:14:39.686Z,51.00
2019-04-21T00:17:06.150Z,51.10
2019-04-21T00:19:43.008Z,51.20
2019-04-21T00:22:26.877Z,51.20
2019-04-21T00:25:01.057Z,51.50
2019-04-21T00:27:34.284Z,50.70
2019-04-21T00:30:10.905Z,50.90
2019-04-21T00:32:31.730Z,50.50
2019-04-21T00:35:02.532Z,50.70
2019-04-21T00:37:45.164Z,50.90
2019-04-21T00:40:22.532Z,50.90
2019-04-21T00:42:51.874Z,50.80
2019-04-21T00:45:22.275Z,50.90
2019-04-21T00:47:53.134Z,50.70
2019-04-21T00:50:38.022Z,50.70
2019-04-21T00:53:19.714Z,51.00
2019-04-21T00:55:51.395Z,50.80
2019-04-21T00:58:22.452Z,50.80
2019-04-21T01:00:51.124Z,51.10
2019-04-21T01:03:25.838Z,51.10
2019-04-21T01:06:08.241Z,51.30
2019-04-21T01:08:28.234Z,51.20
2019-04-21T01:10:51.549Z,50.80
2019-04-21T01:13:33.333Z,51.10
2019-04-21T01:16:05.610Z,51.30
2019-04-21T01:18:33.135Z,51.20
2019-04-21T01:20:45.065Z,51.20
2019-04-21T01:23:15.184Z,51.20
2019-04-21T01:26:00.784Z,52.00
2019-04-21T01:28:35.928Z,51.30
2019-04-21T01:31:11.940Z,51.40
2019-04-21T01:33:44.695Z,51.30
2019-04-21T01:36:08.863Z,51.50
2019-04-21T01:38:49.274Z,51.40
2019-04-21T01:41:20.963Z,51.60
2019-04-21T01:43:46.000Z,51.50
2019-04-21T01:46:16.395Z,51.50
2019-04-21T01:48:44.329Z,51.50
2019-04-21T01:51:18.895Z,51.70
2019-04-21T01:54:04.005Z,51.60
2019-04-21T01:56:51.261Z,51.50
2019-04-21T01:59:12.771Z,51.60
2019-04-21T02:02:00.132Z,52.10
2019-04-21T02:04:37.175Z,51.70
2019-04-21T02:07:02.838Z,51.90
2019-04-21T02:09:37.992Z,51.80
2019-04-21T02:12:15.799Z,52.10
2019-04-21T02:14:50.357Z,52.10
2019-04-21T02:17:17.322Z,52.10
2019-04-21T02:19:41.039Z,52.10
2019-04-21T02:22:19.176Z,52.20
2019-04-21T02:24:56.640Z,52.20
2019-04-21T02:27:24.951Z,52.30
2019-04-21T02:29:55.890Z,52.50
2019-04-21T02:32:38.944Z,52.50
2019-04-21T02:35:12.384Z,52.20
2019-04-21T02:37:46.908Z,52.50
2019-04-21T02:42:47.963Z,52.30
2019-04-21T02:45:19.113Z,52.50
2019-04-21T02:48:03.939Z,52.60
2019-04-21T02:50:19.035Z,52.50
2019-04-21T02:58:01.986Z,52.50
2019-04-21T03:00:32.971Z,52.40
2019-04-21T03:03:13.287Z,52.60
2019-04-21T03:08:38.519Z,52.50
2019-04-21T03:11:05.285Z,52.50
2019-04-21T03:16:09.726Z,52.70
2019-04-21T03:18:48.558Z,52.60
2019-04-21T03:23:56.290Z,52.60
2019-04-21T03:28:37.057Z,52.90
2019-04-21T03:31:35.996Z,53.60
2019-04-21T03:34:14.846Z,53.60
2019-04-21T03:38:40.567Z,53.80
2019-04-21T03:41:22.130Z,53.80
2019-04-21T03:43:50.625Z,53.90
2019-04-21T03:46:24.709Z,53.70
2019-04-21T03:49:02.233Z,53.90
2019-04-21T03:53:57.551Z,54.20
2019-04-21T04:01:38.033Z,54.20
2019-04-21T04:04:15.465Z,53.90
2019-04-21T04:06:45.072Z,54.20
2019-04-21T04:14:33.429Z,54.50
2019-04-21T04:17:11.850Z,54.70
2019-04-21T04:19:40.287Z,54.40
2019-04-21T04:22:15.400Z,54.60
2019-04-21T04:24:38.931Z,54.50
2019-04-21T04:27:20.983Z,54.40
2019-04-21T04:29:39.812Z,54.60
2019-04-21T04:32:03.657Z,54.50
2019-04-21T04:37:26.337Z,54.70
2019-04-21T04:39:48.734Z,54.60
2019-04-21T04:49:54.907Z,54.70
2019-04-21T04:55:06.499Z,54.80
2019-04-21T05:00:19.554Z,55.00
2019-04-21T05:02:46.308Z,54.80
2019-04-21T05:05:19.090Z,55.00
2019-04-21T05:07:50.528Z,55.10
2019-04-21T05:10:36.788Z,55.20
2019-04-21T05:15:16.233Z,55.20
2019-04-21T05:20:49.250Z,55.40
2019-04-21T05:22:56.294Z,55.40
2019-04-21T05:25:18.519Z,55.50
2019-04-21T05:27:47.041Z,55.60
2019-04-21T05:30:40.386Z,55.60
2019-04-21T05:33:34.463Z,55.70
2019-04-21T05:36:15.775Z,55.90
2019-04-21T05:38:42.420Z,55.90
2019-04-21T05:41:10.029Z,55.90
2019-04-21T05:43:54.518Z,56.00
2019-04-21T05:46:25.442Z,56.20
2019-04-21T05:48:58.736Z,56.30
2019-04-21T05:51:25.309Z,56.40
2019-04-21T05:54:12.982Z,56.60
2019-04-21T05:56:35.444Z,56.80
2019-04-21T05:59:10.308Z,56.90
2019-04-21T06:01:40.884Z,57.20
2019-04-21T06:04:14.950Z,57.20
2019-04-21T06:06:48.109Z,57.40
2019-04-21T06:09:16.054Z,57.50
2019-04-21T06:11:45.779Z,58.70
2019-04-21T06:14:20.372Z,61.70
2019-04-21T06:19:23.648Z,63.10
2019-04-21T06:21:51.183Z,62.00
2019-04-21T06:24:26.974Z,61.40
2019-04-21T06:29:30.050Z,62.20
2019-04-21T06:34:41.079Z,60.90
2019-04-21T06:37:34.737Z,60.90
2019-04-21T06:39:58.583Z,60.80
2019-04-21T06:42:16.188Z,60.80
2019-04-21T06:44:54.117Z,60.90
2019-04-21T06:47:24.698Z,60.60
2019-04-21T06:49:50.155Z,60.40
2019-04-21T06:52:43.114Z,60.20
2019-04-21T06:54:54.942Z,60.40
2019-04-21T06:57:32.159Z,60.50
2019-04-21T06:59:52.626Z,60.40
2019-04-21T07:05:00.442Z,60.50
2019-04-21T07:07:27.874Z,60.30
2019-04-21T07:10:10.352Z,60.40
2019-04-21T07:12:37.063Z,60.40
2019-04-21T07:15:03.412Z,60.50
2019-04-21T07:17:51.208Z,60.40
2019-04-21T07:20:12.482Z,59.40
2019-04-21T07:22:44.414Z,59.20
2019-04-21T07:25:15.380Z,59.30
2019-04-21T07:27:50.743Z,59.00
2019-04-21T07:30:19.276Z,57.90
2019-04-21T07:35:20.826Z,57.10
2019-04-21T07:37:53.864Z,57.30
2019-04-21T07:40:13.478Z,57.60
2019-04-21T07:42:47.757Z,57.70
2019-04-21T07:45:22.413Z,58.00
2019-04-21T07:47:55.213Z,57.80
2019-04-21T07:50:31.850Z,58.00
2019-04-21T07:53:19.514Z,58.00
2019-04-21T07:58:10.777Z,58.10
2019-04-21T08:03:16.118Z,55.00
2019-04-21T08:05:45.821Z,54.30
2019-04-21T08:08:17.908Z,55.20
2019-04-21T08:10:52.263Z,55.60
2019-04-21T08:13:32.776Z,56.30
2019-04-21T08:15:54.261Z,56.60
2019-04-21T08:18:28.736Z,57.00
2019-04-21T08:20:53.385Z,57.00
2019-04-21T08:23:31.884Z,56.90
2019-04-21T08:28:35.080Z,57.10
2019-04-21T08:31:11.493Z,57.30
2019-04-21T08:33:38.465Z,57.40
2019-04-21T08:38:40.208Z,57.40
2019-04-21T08:48:52.789Z,56.80
2019-04-21T08:51:34.024Z,57.00
2019-04-21T08:53:59.250Z,57.10
2019-04-21T08:56:41.650Z,57.40
2019-04-21T08:59:31.388Z,57.40
2019-04-21T09:02:07.667Z,57.40
2019-04-21T09:04:39.638Z,57.70
2019-04-21T09:07:14.722Z,57.60
2019-04-21T09:09:44.400Z,58.10
2019-04-21T09:12:16.161Z,57.90
2019-04-21T09:14:50.676Z,58.00
2019-04-21T09:17:12.092Z,58.20
2019-04-21T09:19:58.010Z,58.00
2019-04-21T09:22:16.787Z,57.90
2019-04-21T09:25:16.293Z,57.90
2019-04-21T09:27:28.022Z,57.90
2019-04-21T09:29:49.208Z,57.80
2019-04-21T09:32:18.326Z,58.10
2019-04-21T09:34:45.532Z,58.00
2019-04-21T09:37:27.808Z,58.00
2019-04-21T09:39:50.264Z,58.00
2019-04-21T09:42:19.801Z,57.80
2019-04-21T09:44:53.821Z,57.90
2019-04-21T09:47:24.520Z,57.80
2019-04-21T09:49:54.307Z,57.90
2019-04-21T09:52:30.152Z,57.90
2019-04-21T09:55:04.261Z,57.70
2019-04-21T09:57:40.341Z,57.60
2019-04-21T10:00:05.835Z,57.70
2019-04-21T10:02:38.534Z,57.80
2019-04-21T10:05:03.224Z,57.80
2019-04-21T10:07:37.078Z,57.70
2019-04-21T10:10:08.172Z,57.70
2019-04-21T10:12:38.704Z,57.60
2019-04-21T10:15:10.536Z,57.40
2019-04-21T10:17:48.165Z,57.60
2019-04-21T10:20:20.105Z,57.70
2019-04-21T10:22:50.956Z,57.20
2019-04-21T10:25:21.282Z,57.40
2019-04-21T10:27:52.756Z,57.40
2019-04-21T10:30:24.476Z,57.60
2019-04-21T10:32:56.435Z,57.70
2019-04-21T10:35:27.231Z,57.10
2019-04-21T10:38:09.270Z,57.30
2019-04-21T10:40:32.118Z,57.00
2019-04-21T10:43:00.823Z,56.80
2019-04-21T10:45:31.010Z,56.50
2019-04-21T10:48:01.264Z,56.40
2019-04-21T10:50:31.447Z,56.50
2019-04-21T10:53:04.837Z,55.10
2019-04-21T10:55:48.583Z,55.90
2019-04-21T10:58:08.713Z,56.20
2019-04-21T11:00:41.931Z,56.40
2019-04-21T11:03:30.921Z,56.70
2019-04-21T11:06:03.220Z,56.90
2019-04-21T11:08:41.571Z,51.70
2019-04-21T11:11:09.923Z,52.70
2019-04-21T11:13:40.951Z,53.60
2019-04-21T11:16:11.282Z,54.20
2019-04-21T11:18:42.094Z,54.70
2019-04-21T11:21:13.253Z,55.40
2019-04-21T11:23:43.880Z,55.70
2019-04-21T11:26:15.978Z,55.90
2019-04-21T11:28:47.088Z,56.10
2019-04-21T11:31:18.687Z,55.50
2019-04-21T11:33:49.294Z,56.00
2019-04-21T11:36:19.568Z,56.00
2019-04-21T11:39:07.247Z,56.30
2019-04-21T11:41:23.823Z,56.50
2019-04-21T11:43:57.092Z,56.60
2019-04-21T11:46:28.570Z,56.40
2019-04-21T11:49:00.080Z,56.70
2019-04-21T11:51:31.012Z,56.50
2019-04-21T11:54:01.718Z,56.90
2019-04-21T11:56:32.748Z,57.00
2019-04-21T11:59:03.829Z,57.30
2019-04-21T12:01:35.904Z,56.70
2019-04-21T12:04:07.504Z,56.80
2019-04-21T12:06:43.079Z,57.10
2019-04-21T12:09:10.059Z,56.90
2019-04-21T12:11:41.349Z,57.00
2019-04-21T12:14:12.066Z,56.20
2019-04-21T12:16:43.281Z,53.20
2019-04-21T12:19:14.579Z,54.60
2019-04-21T12:22:00.379Z,54.90
2019-04-21T12:24:19.417Z,55.50
2019-04-21T12:26:49.793Z,55.50
2019-04-21T12:29:20.846Z,55.40
2019-04-21T12:32:05.626Z,55.30
2019-04-21T12:34:36.251Z,55.90
2019-04-21T12:37:06.716Z,56.00
2019-04-21T12:39:38.650Z,56.90
2019-04-21T12:42:09.097Z,56.50
2019-04-21T12:44:43.327Z,56.70
2019-04-21T12:47:14.147Z,56.60
2019-04-21T12:49:45.561Z,56.60
2019-04-21T12:52:15.927Z,56.70
2019-04-21T12:54:47.914Z,56.50
2019-04-21T12:57:19.224Z,56.50
2019-04-21T12:59:50.837Z,56.10
2019-04-21T13:02:21.951Z,56.40
2019-04-21T13:04:53.021Z,56.60
2019-04-21T13:07:25.766Z,56.50
2019-04-21T13:09:55.922Z,56.70
2019-04-21T13:12:26.924Z,56.80
2019-04-21T13:15:02.502Z,56.30
2019-04-21T13:17:33.073Z,56.20
2019-04-21T13:20:05.342Z,56.60
2019-04-21T13:22:37.516Z,56.80
2019-04-21T13:25:09.605Z,56.90
2019-04-21T13:27:40.863Z,52.80
2019-04-21T13:30:14.546Z,50.50
2019-04-21T13:32:45.210Z,49.20
2019-04-21T13:35:17.098Z,49.00
2019-04-21T13:37:49.311Z,48.40
2019-04-21T13:40:45.100Z,48.20
2019-04-21T13:43:04.099Z,46.60
2019-04-21T13:45:34.291Z,46.80
2019-04-21T13:48:08.318Z,50.80
2019-04-21T13:50:39.452Z,51.70
2019-04-21T13:53:09.788Z,52.10
2019-04-21T13:55:40.735Z,51.00
2019-04-21T13:58:14.593Z,51.80
2019-04-21T14:00:45.608Z,52.60
2019-04-21T14:03:16.781Z,52.70
2019-04-21T14:05:48.536Z,53.30
2019-04-21T14:08:19.011Z,53.70
2019-04-21T14:10:49.349Z,53.90
2019-04-21T14:13:20.413Z,54.20
2019-04-21T14:15:51.827Z,54.40
2019-04-21T14:18:24.633Z,54.70
2019-04-21T14:20:55.488Z,55.00
2019-04-21T14:23:34.445Z,55.10
2019-04-21T14:25:57.715Z,55.40
2019-04-21T14:28:28.231Z,56.10
2019-04-21T14:30:58.717Z,55.90
2019-04-21T14:33:29.783Z,55.80
2019-04-21T14:36:00.985Z,56.50
2019-04-21T14:38:32.359Z,56.50
2019-04-21T14:41:03.972Z,56.60
2019-04-21T14:43:34.394Z,56.90
2019-04-21T14:46:09.426Z,56.80
2019-04-21T14:48:57.195Z,56.70
2019-04-21T14:51:29.356Z,56.50
2019-04-21T14:54:08.020Z,56.60
2019-04-21T14:56:39.566Z,57.00
2019-04-21T14:59:10.943Z,57.30
2019-04-21T15:01:41.926Z,57.40
2019-04-21T15:04:15.330Z,57.30
2019-04-21T15:06:45.301Z,57.30
2019-04-21T15:09:15.782Z,56.80
2019-04-21T15:11:47.617Z,57.00
2019-04-21T15:14:17.881Z,57.30
2019-04-21T15:16:49.039Z,57.00
2019-04-21T15:19:20.313Z,57.40
2019-04-21T15:21:52.235Z,57.60
2019-04-21T15:24:24.374Z,57.20
2019-04-21T15:26:54.808Z,57.30
2019-04-21T15:29:26.646Z,57.70
2019-04-21T15:31:58.706Z,58.30
2019-04-21T15:34:29.874Z,57.10
2019-04-21T15:37:01.896Z,56.80
2019-04-21T15:39:32.105Z,56.70
2019-04-21T15:42:02.800Z,57.00
2019-04-21T15:44:34.542Z,57.50
2019-04-21T15:47:06.129Z,57.30
2019-04-21T15:50:01.128Z,57.00
2019-04-21T15:52:27.929Z,57.60
2019-04-21T15:55:00.868Z,56.90
2019-04-21T15:57:35.809Z,57.60
2019-04-21T16:00:13.931Z,58.50
2019-04-21T16:02:46.636Z,57.50
2019-04-21T16:05:17.225Z,56.80
2019-04-21T16:07:47.946Z,57.40
2019-04-21T16:10:30.938Z,57.20
2019-04-21T16:12:52.024Z,54.50
2019-04-21T16:15:22.943Z,51.60
2019-04-21T16:17:53.350Z,50.70
2019-04-21T16:20:27.925Z,50.80
2019-04-21T16:22:57.944Z,50.50
2019-04-21T16:25:28.687Z,52.70
2019-04-21T16:27:59.474Z,51.60
2019-04-21T16:30:30.831Z,52.60
2019-04-21T16:33:01.966Z,52.50
2019-04-21T16:35:33.893Z,52.30
2019-04-21T16:38:05.928Z,52.30
2019-04-21T16:40:46.290Z,52.50
2019-04-21T16:43:08.162Z,52.30
2019-04-21T16:45:39.110Z,52.50
2019-04-21T16:48:09.587Z,52.30
2019-04-21T16:50:41.425Z,52.90
2019-04-21T16:53:17.684Z,53.20
2019-04-21T16:55:53.111Z,52.60
2019-04-21T16:58:29.074Z,52.30
2019-04-21T17:01:12.748Z,53.00
2019-04-21T17:03:39.859Z,52.00
2019-04-21T17:06:11.152Z,52.60
2019-04-21T17:08:42.931Z,52.80
2019-04-21T17:11:19.413Z,53.40
2019-04-21T17:13:45.756Z,52.70
2019-04-21T17:16:43.459Z,51.20
2019-04-21T17:18:57.398Z,52.40
2019-04-21T17:21:19.358Z,53.30
2019-04-21T17:23:50.533Z,51.70
2019-04-21T17:26:21.317Z,52.30
2019-04-21T17:28:52.331Z,51.80
2019-04-21T17:31:22.517Z,53.10
2019-04-21T17:34:00.120Z,52.30
2019-04-21T17:36:25.179Z,52.40
2019-04-21T17:38:56.127Z,53.90
2019-04-21T17:41:33.994Z,52.10
2019-04-21T17:43:58.281Z,52.70
2019-04-21T17:46:38.843Z,53.00
2019-04-21T17:49:01.135Z,53.50
2019-04-21T17:51:39.448Z,52.00
2019-04-21T17:54:30.197Z,53.40
2019-04-21T17:57:11.249Z,53.50
2019-04-21T17:59:50.698Z,52.90
2019-04-21T18:02:10.982Z,52.70
2019-04-21T18:04:49.261Z,52.60
2019-04-21T18:07:15.210Z,52.80
2019-04-21T18:10:00.474Z,53.00
2019-04-21T18:12:24.950Z,52.90
2019-04-21T18:14:53.014Z,53.10
2019-04-21T18:17:14.512Z,53.00
2019-04-21T18:19:47.486Z,52.90
2019-04-21T18:22:34.779Z,53.00
2019-04-21T18:25:06.693Z,52.80
2019-04-21T18:27:34.646Z,52.30
2019-04-21T18:30:17.956Z,52.80
2019-04-21T18:32:48.428Z,52.80
2019-04-21T18:35:20.852Z,53.40
2019-04-21T18:38:04.562Z,53.00
2019-04-21T18:40:30.866Z,52.60
2019-04-21T18:43:38.801Z,53.00
2019-04-21T18:46:06.990Z,53.40
2019-04-21T18:48:27.437Z,53.30
2019-04-21T18:51:02.833Z,53.60
2019-04-21T18:53:40.971Z,53.40
2019-04-21T18:56:05.556Z,53.50
2019-04-21T18:58:32.556Z,53.70
2019-04-21T19:01:10.552Z,53.40
2019-04-21T19:03:41.101Z,54.00
2019-04-21T19:06:12.822Z,54.30
2019-04-21T19:08:59.770Z,53.40
2019-04-21T19:11:46.718Z,53.40
2019-04-21T19:14:29.035Z,53.90
2019-04-21T19:21:55.821Z,54.10
2019-04-21T19:24:29.442Z,54.10
2019-04-21T19:26:58.782Z,53.60
2019-04-21T19:29:29.754Z,54.00
2019-04-21T19:32:05.495Z,54.10
2019-04-21T19:34:22.422Z,54.30
2019-04-21T19:36:55.795Z,54.00
2019-04-21T19:39:34.997Z,54.30
2019-04-21T19:42:02.981Z,54.30
2019-04-21T19:44:42.304Z,54.20
2019-04-21T19:47:16.856Z,54.50
2019-04-21T19:49:51.307Z,54.40
2019-04-21T19:52:05.531Z,54.30
2019-04-21T19:54:35.833Z,54.50
2019-04-21T19:57:02.822Z,54.00
2019-04-21T19:59:40.528Z,54.30
2019-04-21T20:02:06.774Z,54.10
2019-04-21T20:04:43.232Z,54.20
2019-04-21T20:07:23.203Z,54.10
2019-04-21T20:09:57.505Z,54.20
2019-04-21T20:12:36.926Z,54.00
2019-04-21T20:15:04.952Z,53.90
2019-04-21T20:17:35.072Z,53.80
2019-04-21T20:19:47.863Z,54.10
2019-04-21T20:22:18.891Z,53.70
2019-04-21T20:24:53.904Z,54.60
2019-04-21T20:27:36.214Z,53.90
2019-04-21T20:30:07.097Z,54.00
2019-04-21T20:32:42.690Z,53.80
2019-04-21T20:35:14.362Z,53.70
2019-04-21T20:37:42.166Z,53.90
2019-04-21T20:40:04.351Z,53.60
2019-04-21T20:42:42.655Z,53.70
2019-04-21T20:47:39.382Z,53.70
2019-04-21T20:50:23.273Z,53.70
2019-04-21T20:53:01.315Z,53.70
2019-04-21T20:55:22.350Z,53.80
2019-04-21T20:57:54.968Z,53.70
2019-04-21T21:00:31.786Z,53.60
2019-04-21T21:03:07.076Z,53.80
2019-04-21T21:05:30.351Z,53.60
2019-04-21T21:08:13.655Z,53.70
2019-04-21T21:10:36.895Z,53.70
2019-04-21T21:13:22.715Z,53.60
2019-04-21T21:15:50.131Z,53.80
2019-04-21T21:18:26.261Z,53.70
2019-04-21T21:20:49.409Z,53.90
2019-04-21T21:23:11.789Z,53.50
2019-04-21T21:25:52.978Z,53.30
2019-04-21T21:28:10.126Z,53.40
2019-04-21T21:30:47.015Z,53.60
2019-04-21T21:33:24.720Z,53.40
2019-04-21T21:35:50.122Z,53.50
2019-04-21T21:38:25.560Z,53.70
2019-04-21T21:40:54.707Z,53.50
2019-04-21T21:43:17.571Z,53.80
2019-04-21T21:45:50.068Z,53.50
2019-04-21T21:48:36.687Z,53.10
2019-04-21T21:50:56.654Z,53.20
2019-04-21T21:53:23.020Z,53.40
2019-04-21T21:55:51.031Z,53.40
2019-04-21T21:58:27.490Z,53.50
2019-04-21T22:00:58.986Z,54.00
2019-04-21T22:03:31.848Z,53.60
2019-04-21T22:06:06.143Z,53.40
2019-04-21T22:08:30.483Z,53.50
2019-04-21T22:11:01.418Z,53.50
2019-04-21T22:13:38.520Z,53.20
2019-04-21T22:16:08.887Z,53.70
2019-04-21T22:18:56.798Z,53.60
2019-04-21T22:21:18.752Z,54.30
2019-04-21T22:23:47.558Z,54.10
2019-04-21T22:26:11.342Z,53.40
2019-04-21T22:28:41.157Z,53.70
2019-04-21T22:31:14.832Z,53.70
2019-04-21T22:33:48.326Z,53.50
2019-04-21T22:36:26.755Z,53.60
2019-04-21T22:39:01.536Z,53.90
2019-04-21T22:41:26.573Z,54.00
2019-04-21T22:43:51.765Z,54.20
2019-04-21T22:46:20.543Z,53.90
2019-04-21T22:48:53.172Z,54.10
2019-04-21T22:51:30.216Z,54.10
2019-04-21T22:53:56.140Z,54.30
2019-04-21T22:56:30.081Z,53.80
2019-04-21T22:59:04.286Z,54.10
2019-04-21T23:01:40.546Z,54.30
2019-04-21T23:04:04.780Z,54.20
2019-04-21T23:06:36.246Z,54.40
2019-04-21T23:09:09.021Z,54.20
2019-04-21T23:11:43.719Z,54.10
2019-04-21T23:14:13.171Z,53.90
2019-04-21T23:16:45.481Z,54.00
2019-04-21T23:19:31.316Z,53.90
2019-04-21T23:22:03.831Z,53.90
2019-04-21T23:24:41.780Z,54.20
2019-04-21T23:27:05.474Z,53.70
2019-04-21T23:29:51.036Z,53.90
2019-04-21T23:32:08.514Z,54.00
2019-04-21T23:34:26.587Z,53.90
2019-04-21T23:37:03.190Z,53.90
2019-04-21T23:39:30.191Z,54.10
2019-04-21T23:41:59.529Z,53.90
2019-04-21T23:44:33.878Z,53.70
2019-04-21T23:47:05.326Z,54.30
2019-04-21T23:49:42.580Z,54.10
2019-04-21T23:52:09.031Z,53.90
2019-04-21T23:54:36.027Z,54.00
2019-04-21T23:57:14.381Z,54.00
2019-04-21T23:59:42.193Z,53.90
